PWSweather.com
Personal Weather Stations
Station Observations
NOCONAWX
Sherman Street, Nocona, TX 76255

Sherman StreetNocona, TX 76255

Lat: 33.7851771, Lon: -97.7248693

Elevation: 981

Station Type: Davis 6152

http://www.noconaweather.com

Latest ConditionsUpdated 5:00:01 AM CDT Sunday, Aug 31, 2014
Currently Today's Max Today's Min Today's Average
Temperature 77.1°F25.1°C 80.1°F26.7°C 76.7°F24.8°C 78.0°F25.6°C
Dew Point 69.3°F20.7°C 70.1°F21.2°C 69.3°F20.7°C 69.7°F20.9°C
Winds 3.0 mph NNW4.8 kmh NNW 3.0 mph NNW4.8 kmh NNW - 2.3 mph 3.7 kmh
Wind Gusts 9.0 mph14.5 kmh 9.0 mph14.5 kmh - -
Humidity 77% 79% 70% 76%
Pressure 29.84 in1010.5 mb 29.86 in1011.2 mb 29.83 in1010.2 mb -
Hour Temp Dew Point Humidity Winds Wind Gusts Pressure Precip Precip Rate Daily Precip Total
05:00 AM 77.1°F25.1°C 69.3°F20.7°C 77% 3.0 mph NNW4.8 kmh NNW 9.0 mph14.5 kmh 29.84 in1010.5 mb 0.00 in0.0 mm 0.00 in/hr0.0 mm/hr 0.00 in0.0 mm
04:45 AM 77.3°F25.2°C 69.5°F20.8°C 77% 3.0 mph N4.8 kmh N 9.0 mph14.5 kmh 29.84 in1010.5 mb 0.00 in0.0 mm 0.00 in/hr0.0 mm/hr 0.00 in0.0 mm
04:30 AM 77.0°F25.0°C 69.6°F20.9°C 78% 3.0 mph N4.8 kmh N 7.0 mph11.3 kmh 29.84 in1010.5 mb 0.00 in0.0 mm 0.00 in/hr0.0 mm/hr 0.00 in0.0 mm
04:15 AM 76.7°F24.8°C 69.7°F20.9°C 79% 2.0 mph N3.2 kmh N 7.0 mph11.3 kmh 29.84 in1010.5 mb 0.00 in0.0 mm 0.00 in/hr0.0 mm/hr 0.00 in0.0 mm
04:00 AM 76.7°F24.8°C 69.7°F20.9°C 79% 2.0 mph N3.2 kmh N 8.0 mph12.9 kmh 29.84 in1010.5 mb 0.00 in0.0 mm 0.00 in/hr0.0 mm/hr 0.00 in0.0 mm
03:45 AM 76.8°F24.9°C 69.8°F21.0°C 79% 2.0 mph N3.2 kmh N 4.0 mph6.4 kmh 29.83 in1010.2 mb 0.00 in0.0 mm 0.00 in/hr0.0 mm/hr 0.00 in0.0 mm
03:30 AM 76.9°F24.9°C 69.5°F20.8°C 78% 2.0 mph N3.2 kmh N 5.0 mph8.0 kmh 29.84 in1010.5 mb 0.00 in0.0 mm 0.00 in/hr0.0 mm/hr 0.00 in0.0 mm
03:15 AM 77.0°F25.0°C 69.6°F20.9°C 78% 2.0 mph NNW3.2 kmh NNW 6.0 mph9.7 kmh 29.84 in1010.5 mb 0.00 in0.0 mm 0.00 in/hr0.0 mm/hr 0.00 in0.0 mm
03:00 AM 77.0°F25.0°C 70.0°F21.1°C 79% 2.0 mph NNW3.2 kmh NNW 4.0 mph6.4 kmh 29.84 in1010.5 mb 0.00 in0.0 mm 0.00 in/hr0.0 mm/hr 0.00 in0.0 mm
02:45 AM 77.2°F25.1°C 69.8°F21.0°C 78% 2.0 mph N3.2 kmh N 7.0 mph11.3 kmh 29.85 in1010.8 mb 0.00 in0.0 mm 0.00 in/hr0.0 mm/hr 0.00 in0.0 mm
02:30 AM 77.5°F25.3°C 70.1°F21.2°C 78% 3.0 mph N4.8 kmh N 8.0 mph12.9 kmh 29.84 in1010.5 mb 0.00 in0.0 mm 0.00 in/hr0.0 mm/hr 0.00 in0.0 mm
02:15 AM 77.7°F25.4°C 69.9°F21.1°C 77% 2.0 mph N3.2 kmh N 4.0 mph6.4 kmh 29.84 in1010.5 mb 0.00 in0.0 mm 0.00 in/hr0.0 mm/hr 0.00 in0.0 mm
02:00 AM 78.0°F25.6°C 69.8°F21.0°C 76% 2.0 mph N3.2 kmh N 6.0 mph9.7 kmh 29.85 in1010.8 mb 0.00 in0.0 mm 0.00 in/hr0.0 mm/hr 0.00 in0.0 mm
01:45 AM 78.3°F25.7°C 69.7°F20.9°C 75% 3.0 mph N4.8 kmh N 5.0 mph8.0 kmh 29.85 in1010.8 mb 0.00 in0.0 mm 0.00 in/hr0.0 mm/hr 0.00 in0.0 mm
01:30 AM 78.5°F25.8°C 69.9°F21.1°C 75% 2.0 mph N3.2 kmh N 7.0 mph11.3 kmh 29.85 in1010.8 mb 0.00 in0.0 mm 0.00 in/hr0.0 mm/hr 0.00 in0.0 mm
01:15 AM 79.0°F26.1°C 70.0°F21.1°C 74% 3.0 mph N4.8 kmh N 9.0 mph14.5 kmh 29.86 in1011.2 mb 0.00 in0.0 mm 0.00 in/hr0.0 mm/hr 0.00 in0.0 mm
01:00 AM 79.2°F26.2°C 69.8°F21.0°C 73% 3.0 mph N4.8 kmh N 5.0 mph8.0 kmh 29.86 in1011.2 mb 0.00 in0.0 mm 0.00 in/hr0.0 mm/hr 0.00 in0.0 mm
12:45 AM 79.6°F26.4°C 69.8°F21.0°C 72% 2.0 mph N3.2 kmh N 6.0 mph9.7 kmh 29.86 in1011.2 mb 0.00 in0.0 mm 0.00 in/hr0.0 mm/hr 0.00 in0.0 mm
12:30 AM 79.9°F26.6°C 69.7°F20.9°C 71% 2.0 mph N3.2 kmh N 7.0 mph11.3 kmh 29.86 in1011.2 mb 0.00 in0.0 mm 0.00 in/hr0.0 mm/hr 0.00 in0.0 mm
12:15 AM 79.8°F26.6°C 69.6°F20.9°C 71% 2.0 mph N3.2 kmh N 6.0 mph9.7 kmh 29.86 in1011.2 mb 0.00 in0.0 mm 0.00 in/hr0.0 mm/hr 0.00 in0.0 mm
12:00 AM 80.1°F26.7°C 69.4°F20.8°C 70% 2.0 mph N3.2 kmh N 5.0 mph8.0 kmh 29.86 in1011.2 mb 0.00 in0.0 mm 0.00 in/hr0.0 mm/hr 0.00 in0.0 mm